sensor_id;sensor_type;location;lat;lon;timestamp;P1;durP1;ratioP1;P2;durP2;ratioP2
13291;SDS011;6714;53.056;8.690;2022-10-16T00:02:39;1.83;;;1.70;;
13291;SDS011;6714;53.056;8.690;2022-10-16T00:05:21;2.50;;;1.70;;
13291;SDS011;6714;53.056;8.690;2022-10-16T00:08:03;1.83;;;1.73;;
13291;SDS011;6714;53.056;8.690;2022-10-16T00:10:45;2.23;;;1.60;;
13291;SDS011;6714;53.056;8.690;2022-10-16T00:13:29;1.80;;;1.70;;
13291;SDS011;6714;53.056;8.690;2022-10-16T00:16:11;1.70;;;1.60;;
13291;SDS011;6714;53.056;8.690;2022-10-16T00:18:54;2.00;;;1.90;;
13291;SDS011;6714;53.056;8.690;2022-10-16T00:21:36;2.90;;;1.73;;
13291;SDS011;6714;53.056;8.690;2022-10-16T00:24:18;1.67;;;1.53;;
13291;SDS011;6714;53.056;8.690;2022-10-16T00:27:01;2.20;;;1.77;;
13291;SDS011;6714;53.056;8.690;2022-10-16T00:29:44;1.40;;;1.40;;
13291;SDS011;6714;53.056;8.690;2022-10-16T00:32:26;2.07;;;1.60;;
13291;SDS011;6714;53.056;8.690;2022-10-16T00:35:09;2.13;;;1.70;;
13291;SDS011;6714;53.056;8.690;2022-10-16T00:37:51;2.37;;;1.73;;
13291;SDS011;6714;53.056;8.690;2022-10-16T00:40:33;1.97;;;1.60;;
13291;SDS011;6714;53.056;8.690;2022-10-16T00:46:15;2.13;;;1.80;;
13291;SDS011;6714;53.056;8.690;2022-10-16T00:48:59;2.27;;;1.67;;
13291;SDS011;6714;53.056;8.690;2022-10-16T00:51:42;1.80;;;1.70;;
13291;SDS011;6714;53.056;8.690;2022-10-16T00:54:25;5.47;;;1.77;;
13291;SDS011;6714;53.056;8.690;2022-10-16T00:57:08;2.73;;;1.60;;
13291;SDS011;6714;53.056;8.690;2022-10-16T00:59:51;1.70;;;1.60;;
13291;SDS011;6714;53.056;8.690;2022-10-16T01:02:34;3.40;;;1.80;;
13291;SDS011;6714;53.056;8.690;2022-10-16T01:05:17;3.30;;;1.63;;
13291;SDS011;6714;53.056;8.690;2022-10-16T01:08:01;1.40;;;1.30;;
13291;SDS011;6714;53.056;8.690;2022-10-16T01:10:46;1.60;;;1.50;;
13291;SDS011;6714;53.056;8.690;2022-10-16T01:13:32;5.67;;;1.90;;
13291;SDS011;6714;53.056;8.690;2022-10-16T01:16:18;1.93;;;1.53;;
13291;SDS011;6714;53.056;8.690;2022-10-16T01:19:08;2.23;;;1.70;;
13291;SDS011;6714;53.056;8.690;2022-10-16T01:21:51;1.80;;;1.70;;
13291;SDS011;6714;53.056;8.690;2022-10-16T01:24:39;1.60;;;1.50;;
13291;SDS011;6714;53.056;8.690;2022-10-16T01:27:23;2.73;;;1.87;;
13291;SDS011;6714;53.056;8.690;2022-10-16T01:30:08;3.33;;;1.80;;
13291;SDS011;6714;53.056;8.690;2022-10-16T01:32:54;1.73;;;1.40;;
13291;SDS011;6714;53.056;8.690;2022-10-16T01:35:39;2.83;;;1.67;;
13291;SDS011;6714;53.056;8.690;2022-10-16T01:38:24;5.07;;;2.20;;
13291;SDS011;6714;53.056;8.690;2022-10-16T01:41:09;1.70;;;1.60;;
13291;SDS011;6714;53.056;8.690;2022-10-16T01:43:56;2.10;;;1.50;;
13291;SDS011;6714;53.056;8.690;2022-10-16T01:46:39;1.30;;;1.30;;
13291;SDS011;6714;53.056;8.690;2022-10-16T01:49:21;1.90;;;1.80;;
13291;SDS011;6714;53.056;8.690;2022-10-16T01:52:05;2.37;;;1.77;;
13291;SDS011;6714;53.056;8.690;2022-10-16T01:54:49;2.53;;;1.40;;
13291;SDS011;6714;53.056;8.690;2022-10-16T01:57:33;2.10;;;1.73;;
13291;SDS011;6714;53.056;8.690;2022-10-16T02:00:17;1.53;;;1.43;;
13291;SDS011;6714;53.056;8.690;2022-10-16T02:03:01;1.80;;;1.67;;
13291;SDS011;6714;53.056;8.690;2022-10-16T02:05:45;2.07;;;1.60;;
13291;SDS011;6714;53.056;8.690;2022-10-16T02:08:28;2.37;;;1.77;;
13291;SDS011;6714;53.056;8.690;2022-10-16T02:11:11;1.63;;;1.50;;
13291;SDS011;6714;53.056;8.690;2022-10-16T02:13:55;1.60;;;1.50;;
13291;SDS011;6714;53.056;8.690;2022-10-16T02:16:42;1.67;;;1.57;;
13291;SDS011;6714;53.056;8.690;2022-10-16T02:19:24;2.30;;;1.60;;
13291;SDS011;6714;53.056;8.690;2022-10-16T02:22:08;2.07;;;1.80;;
13291;SDS011;6714;53.056;8.690;2022-10-16T02:24:52;1.90;;;1.60;;
13291;SDS011;6714;53.056;8.690;2022-10-16T02:27:37;1.57;;;1.43;;
13291;SDS011;6714;53.056;8.690;2022-10-16T02:30:21;2.23;;;1.70;;
13291;SDS011;6714;53.056;8.690;2022-10-16T02:33:06;1.60;;;1.50;;
13291;SDS011;6714;53.056;8.690;2022-10-16T02:35:49;1.67;;;1.57;;
13291;SDS011;6714;53.056;8.690;2022-10-16T02:38:32;1.83;;;1.67;;
13291;SDS011;6714;53.056;8.690;2022-10-16T02:41:15;2.53;;;1.83;;
13291;SDS011;6714;53.056;8.690;2022-10-16T02:43:57;3.53;;;1.67;;
13291;SDS011;6714;53.056;8.690;2022-10-16T02:46:39;2.07;;;1.73;;
13291;SDS011;6714;53.056;8.690;2022-10-16T02:49:23;2.33;;;1.70;;
13291;SDS011;6714;53.056;8.690;2022-10-16T02:52:05;2.17;;;1.50;;
13291;SDS011;6714;53.056;8.690;2022-10-16T02:54:47;1.70;;;1.60;;
13291;SDS011;6714;53.056;8.690;2022-10-16T02:57:29;2.67;;;1.57;;
13291;SDS011;6714;53.056;8.690;2022-10-16T03:00:12;2.43;;;1.47;;
13291;SDS011;6714;53.056;8.690;2022-10-16T03:02:55;2.70;;;1.90;;
13291;SDS011;6714;53.056;8.690;2022-10-16T03:05:39;1.73;;;1.63;;
13291;SDS011;6714;53.056;8.690;2022-10-16T03:08:21;2.13;;;1.63;;
13291;SDS011;6714;53.056;8.690;2022-10-16T03:11:05;1.97;;;1.70;;
13291;SDS011;6714;53.056;8.690;2022-10-16T03:13:47;3.20;;;2.07;;
13291;SDS011;6714;53.056;8.690;2022-10-16T03:16:29;1.73;;;1.63;;
13291;SDS011;6714;53.056;8.690;2022-10-16T03:19:11;3.20;;;1.63;;
13291;SDS011;6714;53.056;8.690;2022-10-16T03:21:55;4.40;;;2.00;;
13291;SDS011;6714;53.056;8.690;2022-10-16T03:24:37;2.43;;;1.90;;
13291;SDS011;6714;53.056;8.690;2022-10-16T03:27:19;1.77;;;1.67;;
13291;SDS011;6714;53.056;8.690;2022-10-16T03:30:02;1.80;;;1.57;;
13291;SDS011;6714;53.056;8.690;2022-10-16T03:32:44;1.97;;;1.80;;
13291;SDS011;6714;53.056;8.690;2022-10-16T03:35:26;2.90;;;1.73;;
13291;SDS011;6714;53.056;8.690;2022-10-16T03:38:11;2.13;;;1.80;;
13291;SDS011;6714;53.056;8.690;2022-10-16T03:40:53;2.77;;;1.90;;
13291;SDS011;6714;53.056;8.690;2022-10-16T03:43:35;3.43;;;1.90;;
13291;SDS011;6714;53.056;8.690;2022-10-16T03:46:17;2.10;;;1.93;;
13291;SDS011;6714;53.056;8.690;2022-10-16T03:48:59;3.17;;;2.33;;
13291;SDS011;6714;53.056;8.690;2022-10-16T03:51:41;3.70;;;2.27;;
13291;SDS011;6714;53.056;8.690;2022-10-16T03:54:25;3.50;;;2.50;;
13291;SDS011;6714;53.056;8.690;2022-10-16T03:57:07;4.43;;;2.30;;
13291;SDS011;6714;53.056;8.690;2022-10-16T03:59:49;5.17;;;2.67;;
13291;SDS011;6714;53.056;8.690;2022-10-16T04:02:31;2.70;;;2.40;;
13291;SDS011;6714;53.056;8.690;2022-10-16T04:05:14;2.83;;;2.43;;
13291;SDS011;6714;53.056;8.690;2022-10-16T04:07:56;3.07;;;2.37;;
13291;SDS011;6714;53.056;8.690;2022-10-16T04:10:39;2.80;;;2.50;;
13291;SDS011;6714;53.056;8.690;2022-10-16T04:13:21;2.83;;;2.40;;
13291;SDS011;6714;53.056;8.690;2022-10-16T04:16:04;3.60;;;2.23;;
13291;SDS011;6714;53.056;8.690;2022-10-16T04:18:46;3.87;;;2.50;;
13291;SDS011;6714;53.056;8.690;2022-10-16T04:21:28;3.47;;;2.80;;
13291;SDS011;6714;53.056;8.690;2022-10-16T04:24:10;5.27;;;3.50;;
13291;SDS011;6714;53.056;8.690;2022-10-16T04:26:54;6.67;;;3.73;;
13291;SDS011;6714;53.056;8.690;2022-10-16T04:29:36;4.83;;;3.43;;
13291;SDS011;6714;53.056;8.690;2022-10-16T04:32:18;3.20;;;2.87;;
13291;SDS011;6714;53.056;8.690;2022-10-16T04:35:01;5.37;;;3.83;;
13291;SDS011;6714;53.056;8.690;2022-10-16T04:37:43;5.40;;;3.83;;
13291;SDS011;6714;53.056;8.690;2022-10-16T04:40:25;3.80;;;3.13;;
13291;SDS011;6714;53.056;8.690;2022-10-16T04:43:09;3.43;;;2.80;;
13291;SDS011;6714;53.056;8.690;2022-10-16T04:45:51;2.97;;;2.50;;
13291;SDS011;6714;53.056;8.690;2022-10-16T04:48:34;4.20;;;2.43;;
13291;SDS011;6714;53.056;8.690;2022-10-16T04:51:16;6.53;;;5.13;;
13291;SDS011;6714;53.056;8.690;2022-10-16T04:53:59;5.80;;;4.70;;
13291;SDS011;6714;53.056;8.690;2022-10-16T04:56:41;4.37;;;3.10;;
13291;SDS011;6714;53.056;8.690;2022-10-16T04:59:28;6.27;;;5.33;;
13291;SDS011;6714;53.056;8.690;2022-10-16T05:02:10;7.57;;;4.67;;
13291;SDS011;6714;53.056;8.690;2022-10-16T05:04:52;6.63;;;5.13;;
13291;SDS011;6714;53.056;8.690;2022-10-16T05:07:35;6.03;;;4.57;;
13291;SDS011;6714;53.056;8.690;2022-10-16T05:10:17;6.40;;;5.33;;
13291;SDS011;6714;53.056;8.690;2022-10-16T05:12:59;4.83;;;3.07;;
13291;SDS011;6714;53.056;8.690;2022-10-16T05:15:46;4.40;;;4.00;;
13291;SDS011;6714;53.056;8.690;2022-10-16T05:18:28;11.13;;;6.73;;
13291;SDS011;6714;53.056;8.690;2022-10-16T05:21:10;6.40;;;5.10;;
13291;SDS011;6714;53.056;8.690;2022-10-16T05:23:52;9.67;;;5.10;;
13291;SDS011;6714;53.056;8.690;2022-10-16T05:26:35;6.10;;;5.33;;
13291;SDS011;6714;53.056;8.690;2022-10-16T05:29:17;7.57;;;5.50;;
13291;SDS011;6714;53.056;8.690;2022-10-16T05:32:01;9.73;;;6.80;;
13291;SDS011;6714;53.056;8.690;2022-10-16T05:34:43;6.47;;;5.47;;
13291;SDS011;6714;53.056;8.690;2022-10-16T05:37:25;6.43;;;5.03;;
13291;SDS011;6714;53.056;8.690;2022-10-16T05:40:08;6.00;;;5.33;;
13291;SDS011;6714;53.056;8.690;2022-10-16T05:42:54;7.93;;;6.47;;
13291;SDS011;6714;53.056;8.690;2022-10-16T05:45:36;9.43;;;6.90;;
13291;SDS011;6714;53.056;8.690;2022-10-16T05:48:19;8.87;;;5.30;;
13291;SDS011;6714;53.056;8.690;2022-10-16T05:51:03;5.10;;;4.60;;
13291;SDS011;6714;53.056;8.690;2022-10-16T05:53:46;5.90;;;4.83;;
13291;SDS011;6714;53.056;8.690;2022-10-16T05:56:28;9.63;;;6.13;;
13291;SDS011;6714;53.056;8.690;2022-10-16T05:59:10;6.73;;;6.03;;
13291;SDS011;6714;53.056;8.690;2022-10-16T06:01:53;8.50;;;5.40;;
13291;SDS011;6714;53.056;8.690;2022-10-16T06:04:36;5.13;;;4.40;;
13291;SDS011;6714;53.056;8.690;2022-10-16T06:07:18;7.70;;;4.53;;
13291;SDS011;6714;53.056;8.690;2022-10-16T06:10:00;7.33;;;5.90;;
13291;SDS011;6714;53.056;8.690;2022-10-16T06:12:43;4.90;;;4.37;;
13291;SDS011;6714;53.056;8.690;2022-10-16T06:15:25;6.57;;;4.50;;
13291;SDS011;6714;53.056;8.690;2022-10-16T06:18:07;6.07;;;5.00;;
13291;SDS011;6714;53.056;8.690;2022-10-16T06:20:50;4.67;;;4.07;;
13291;SDS011;6714;53.056;8.690;2022-10-16T06:23:33;4.63;;;4.10;;
13291;SDS011;6714;53.056;8.690;2022-10-16T06:26:16;4.30;;;3.90;;
13291;SDS011;6714;53.056;8.690;2022-10-16T06:28:59;4.83;;;4.27;;
13291;SDS011;6714;53.056;8.690;2022-10-16T06:31:41;6.13;;;4.90;;
13291;SDS011;6714;53.056;8.690;2022-10-16T06:34:23;5.90;;;4.73;;
13291;SDS011;6714;53.056;8.690;2022-10-16T06:37:07;4.67;;;4.20;;
13291;SDS011;6714;53.056;8.690;2022-10-16T06:39:49;6.30;;;5.20;;
13291;SDS011;6714;53.056;8.690;2022-10-16T06:42:32;7.70;;;6.40;;
13291;SDS011;6714;53.056;8.690;2022-10-16T06:45:14;5.87;;;5.33;;
13291;SDS011;6714;53.056;8.690;2022-10-16T06:47:56;7.37;;;6.20;;
13291;SDS011;6714;53.056;8.690;2022-10-16T06:50:38;7.57;;;5.70;;
13291;SDS011;6714;53.056;8.690;2022-10-16T06:53:22;5.57;;;4.90;;
13291;SDS011;6714;53.056;8.690;2022-10-16T06:56:08;6.77;;;4.50;;
13291;SDS011;6714;53.056;8.690;2022-10-16T06:58:50;7.20;;;4.87;;
13291;SDS011;6714;53.056;8.690;2022-10-16T07:01:32;4.37;;;3.77;;
13291;SDS011;6714;53.056;8.690;2022-10-16T07:04:14;5.47;;;4.97;;
13291;SDS011;6714;53.056;8.690;2022-10-16T07:06:56;5.73;;;4.67;;
13291;SDS011;6714;53.056;8.690;2022-10-16T07:09:41;5.83;;;4.60;;
13291;SDS011;6714;53.056;8.690;2022-10-16T07:12:23;2.97;;;2.67;;
13291;SDS011;6714;53.056;8.690;2022-10-16T07:15:05;4.83;;;4.30;;
13291;SDS011;6714;53.056;8.690;2022-10-16T07:17:48;5.20;;;3.80;;
13291;SDS011;6714;53.056;8.690;2022-10-16T07:20:30;5.17;;;3.27;;
13291;SDS011;6714;53.056;8.690;2022-10-16T07:23:12;5.33;;;4.87;;
13291;SDS011;6714;53.056;8.690;2022-10-16T07:25:55;5.00;;;4.30;;
13291;SDS011;6714;53.056;8.690;2022-10-16T07:28:38;4.00;;;3.63;;
13291;SDS011;6714;53.056;8.690;2022-10-16T07:31:20;7.53;;;4.80;;
13291;SDS011;6714;53.056;8.690;2022-10-16T07:34:03;6.03;;;5.43;;
13291;SDS011;6714;53.056;8.690;2022-10-16T07:36:47;6.37;;;3.77;;
13291;SDS011;6714;53.056;8.690;2022-10-16T07:39:29;2.83;;;2.60;;
13291;SDS011;6714;53.056;8.690;2022-10-16T07:42:13;4.07;;;3.67;;
13291;SDS011;6714;53.056;8.690;2022-10-16T07:44:55;4.77;;;3.63;;
13291;SDS011;6714;53.056;8.690;2022-10-16T07:47:37;4.03;;;3.40;;
13291;SDS011;6714;53.056;8.690;2022-10-16T07:50:19;3.87;;;3.40;;
13291;SDS011;6714;53.056;8.690;2022-10-16T07:53:01;2.77;;;2.57;;
13291;SDS011;6714;53.056;8.690;2022-10-16T07:55:43;3.80;;;3.17;;
13291;SDS011;6714;53.056;8.690;2022-10-16T07:58:27;3.80;;;3.47;;
13291;SDS011;6714;53.056;8.690;2022-10-16T08:01:10;3.40;;;3.10;;
13291;SDS011;6714;53.056;8.690;2022-10-16T08:03:54;4.07;;;3.70;;
13291;SDS011;6714;53.056;8.690;2022-10-16T08:06:36;3.20;;;2.90;;
13291;SDS011;6714;53.056;8.690;2022-10-16T08:09:19;3.37;;;3.07;;
13291;SDS011;6714;53.056;8.690;2022-10-16T08:12:01;1.97;;;1.87;;
13291;SDS011;6714;53.056;8.690;2022-10-16T08:14:45;3.77;;;3.20;;
13291;SDS011;6714;53.056;8.690;2022-10-16T08:17:28;2.90;;;2.70;;
13291;SDS011;6714;53.056;8.690;2022-10-16T08:20:10;3.53;;;2.60;;
13291;SDS011;6714;53.056;8.690;2022-10-16T08:22:53;3.83;;;3.03;;
13291;SDS011;6714;53.056;8.690;2022-10-16T08:25:35;3.83;;;3.50;;
13291;SDS011;6714;53.056;8.690;2022-10-16T08:28:18;2.23;;;2.03;;
13291;SDS011;6714;53.056;8.690;2022-10-16T08:31:08;3.00;;;2.70;;
13291;SDS011;6714;53.056;8.690;2022-10-16T08:33:50;3.20;;;2.90;;
13291;SDS011;6714;53.056;8.690;2022-10-16T08:36:33;2.67;;;2.47;;
13291;SDS011;6714;53.056;8.690;2022-10-16T08:39:15;2.40;;;2.20;;
13291;SDS011;6714;53.056;8.690;2022-10-16T08:42:01;2.70;;;2.30;;
13291;SDS011;6714;53.056;8.690;2022-10-16T08:45:02;2.67;;;2.43;;
13291;SDS011;6714;53.056;8.690;2022-10-16T08:47:51;2.53;;;2.33;;
13291;SDS011;6714;53.056;8.690;2022-10-16T08:50:38;2.07;;;1.77;;
13291;SDS011;6714;53.056;8.690;2022-10-16T08:53:22;4.30;;;2.43;;
13291;SDS011;6714;53.056;8.690;2022-10-16T08:56:06;3.50;;;2.30;;
13291;SDS011;6714;53.056;8.690;2022-10-16T08:58:48;2.67;;;2.20;;
13291;SDS011;6714;53.056;8.690;2022-10-16T09:01:34;1.77;;;1.67;;
13291;SDS011;6714;53.056;8.690;2022-10-16T09:07:21;1.80;;;1.70;;
13291;SDS011;6714;53.056;8.690;2022-10-16T09:10:11;3.30;;;2.00;;
13291;SDS011;6714;53.056;8.690;2022-10-16T09:12:57;1.77;;;1.53;;
13291;SDS011;6714;53.056;8.690;2022-10-16T09:15:45;3.50;;;2.20;;
13291;SDS011;6714;53.056;8.690;2022-10-16T09:18:29;1.80;;;1.60;;
13291;SDS011;6714;53.056;8.690;2022-10-16T09:21:16;4.97;;;2.10;;
13291;SDS011;6714;53.056;8.690;2022-10-16T09:24:06;3.73;;;1.93;;
13291;SDS011;6714;53.056;8.690;2022-10-16T09:26:50;6.17;;;1.93;;
13291;SDS011;6714;53.056;8.690;2022-10-16T09:29:32;2.77;;;1.50;;
13291;SDS011;6714;53.056;8.690;2022-10-16T09:32:15;2.93;;;1.73;;
13291;SDS011;6714;53.056;8.690;2022-10-16T09:34:59;1.40;;;1.30;;
13291;SDS011;6714;53.056;8.690;2022-10-16T09:37:41;2.33;;;1.50;;
13291;SDS011;6714;53.056;8.690;2022-10-16T09:40:26;4.40;;;1.80;;
13291;SDS011;6714;53.056;8.690;2022-10-16T09:43:14;3.03;;;1.70;;
13291;SDS011;6714;53.056;8.690;2022-10-16T09:46:00;1.73;;;1.10;;
13291;SDS011;6714;53.056;8.690;2022-10-16T09:48:43;1.33;;;1.20;;
13291;SDS011;6714;53.056;8.690;2022-10-16T09:51:26;2.10;;;1.90;;
13291;SDS011;6714;53.056;8.690;2022-10-16T09:54:13;2.97;;;1.60;;
13291;SDS011;6714;53.056;8.690;2022-10-16T09:57:05;2.47;;;1.50;;
13291;SDS011;6714;53.056;8.690;2022-10-16T09:59:47;4.93;;;1.93;;
13291;SDS011;6714;53.056;8.690;2022-10-16T10:02:30;3.00;;;1.77;;
13291;SDS011;6714;53.056;8.690;2022-10-16T10:05:17;5.47;;;1.97;;
13291;SDS011;6714;53.056;8.690;2022-10-16T10:08:01;3.27;;;1.80;;
13291;SDS011;6714;53.056;8.690;2022-10-16T10:10:47;3.53;;;1.70;;
13291;SDS011;6714;53.056;8.690;2022-10-16T10:13:31;4.27;;;1.60;;
13291;SDS011;6714;53.056;8.690;2022-10-16T10:16:23;2.60;;;1.70;;
13291;SDS011;6714;53.056;8.690;2022-10-16T10:19:08;3.50;;;1.50;;
13291;SDS011;6714;53.056;8.690;2022-10-16T10:21:52;2.17;;;1.53;;
13291;SDS011;6714;53.056;8.690;2022-10-16T10:24:34;2.83;;;1.57;;
13291;SDS011;6714;53.056;8.690;2022-10-16T10:27:16;2.13;;;1.47;;
13291;SDS011;6714;53.056;8.690;2022-10-16T10:30:02;2.57;;;1.70;;
13291;SDS011;6714;53.056;8.690;2022-10-16T10:32:52;3.60;;;1.47;;
13291;SDS011;6714;53.056;8.690;2022-10-16T10:35:39;3.63;;;1.33;;
13291;SDS011;6714;53.056;8.690;2022-10-16T10:38:30;4.23;;;1.47;;
13291;SDS011;6714;53.056;8.690;2022-10-16T10:41:26;2.83;;;1.30;;
13291;SDS011;6714;53.056;8.690;2022-10-16T10:44:11;2.10;;;1.47;;
13291;SDS011;6714;53.056;8.690;2022-10-16T10:47:01;5.77;;;1.60;;
13291;SDS011;6714;53.056;8.690;2022-10-16T10:49:49;2.43;;;1.40;;
13291;SDS011;6714;53.056;8.690;2022-10-16T10:52:38;2.97;;;1.37;;
13291;SDS011;6714;53.056;8.690;2022-10-16T10:55:24;3.63;;;1.47;;
13291;SDS011;6714;53.056;8.690;2022-10-16T10:58:21;2.20;;;1.10;;
13291;SDS011;6714;53.056;8.690;2022-10-16T11:01:07;4.20;;;1.00;;
13291;SDS011;6714;53.056;8.690;2022-10-16T11:03:59;4.13;;;1.10;;
13291;SDS011;6714;53.056;8.690;2022-10-16T11:06:44;2.83;;;1.20;;
13291;SDS011;6714;53.056;8.690;2022-10-16T11:09:30;2.23;;;1.07;;
13291;SDS011;6714;53.056;8.690;2022-10-16T11:12:15;1.83;;;1.20;;
13291;SDS011;6714;53.056;8.690;2022-10-16T11:15:00;5.10;;;1.23;;
13291;SDS011;6714;53.056;8.690;2022-10-16T11:17:45;3.10;;;1.20;;
13291;SDS011;6714;53.056;8.690;2022-10-16T11:20:31;3.83;;;1.17;;
13291;SDS011;6714;53.056;8.690;2022-10-16T11:23:14;4.53;;;1.50;;
13291;SDS011;6714;53.056;8.690;2022-10-16T11:25:59;2.47;;;1.17;;
13291;SDS011;6714;53.056;8.690;2022-10-16T11:28:43;2.70;;;1.00;;
13291;SDS011;6714;53.056;8.690;2022-10-16T11:31:28;3.73;;;1.27;;
13291;SDS011;6714;53.056;8.690;2022-10-16T11:34:16;2.23;;;1.23;;
13291;SDS011;6714;53.056;8.690;2022-10-16T11:37:01;2.93;;;1.23;;
13291;SDS011;6714;53.056;8.690;2022-10-16T11:39:44;2.20;;;1.20;;
13291;SDS011;6714;53.056;8.690;2022-10-16T11:42:33;3.80;;;1.13;;
13291;SDS011;6714;53.056;8.690;2022-10-16T11:45:23;3.63;;;1.23;;
13291;SDS011;6714;53.056;8.690;2022-10-16T11:48:09;2.63;;;1.10;;
13291;SDS011;6714;53.056;8.690;2022-10-16T11:50:56;3.10;;;1.20;;
13291;SDS011;6714;53.056;8.690;2022-10-16T11:53:42;2.80;;;1.20;;
13291;SDS011;6714;53.056;8.690;2022-10-16T11:56:27;2.07;;;1.13;;
13291;SDS011;6714;53.056;8.690;2022-10-16T11:59:13;4.33;;;1.20;;
13291;SDS011;6714;53.056;8.690;2022-10-16T12:01:59;4.50;;;1.53;;
13291;SDS011;6714;53.056;8.690;2022-10-16T12:04:49;2.60;;;1.10;;
13291;SDS011;6714;53.056;8.690;2022-10-16T12:07:34;4.50;;;1.57;;
13291;SDS011;6714;53.056;8.690;2022-10-16T12:10:22;3.27;;;1.23;;
13291;SDS011;6714;53.056;8.690;2022-10-16T12:13:05;2.43;;;1.00;;
13291;SDS011;6714;53.056;8.690;2022-10-16T12:15:47;4.10;;;1.47;;
13291;SDS011;6714;53.056;8.690;2022-10-16T12:18:29;2.53;;;1.13;;
13291;SDS011;6714;53.056;8.690;2022-10-16T12:21:12;4.23;;;1.60;;
13291;SDS011;6714;53.056;8.690;2022-10-16T12:23:56;2.37;;;1.17;;
13291;SDS011;6714;53.056;8.690;2022-10-16T12:26:41;3.60;;;1.30;;
13291;SDS011;6714;53.056;8.690;2022-10-16T12:29:30;3.37;;;1.63;;
13291;SDS011;6714;53.056;8.690;2022-10-16T12:32:22;3.77;;;1.20;;
13291;SDS011;6714;53.056;8.690;2022-10-16T12:35:16;4.47;;;1.20;;
13291;SDS011;6714;53.056;8.690;2022-10-16T12:38:06;3.70;;;1.30;;
13291;SDS011;6714;53.056;8.690;2022-10-16T12:40:55;4.10;;;1.20;;
13291;SDS011;6714;53.056;8.690;2022-10-16T12:43:40;1.93;;;1.20;;
13291;SDS011;6714;53.056;8.690;2022-10-16T12:46:26;3.83;;;1.20;;
13291;SDS011;6714;53.056;8.690;2022-10-16T12:49:21;2.77;;;0.97;;
13291;SDS011;6714;53.056;8.690;2022-10-16T12:55:03;5.10;;;1.20;;
13291;SDS011;6714;53.056;8.690;2022-10-16T12:57:49;6.03;;;1.40;;
13291;SDS011;6714;53.056;8.690;2022-10-16T13:00:39;2.83;;;1.10;;
13291;SDS011;6714;53.056;8.690;2022-10-16T13:03:34;4.07;;;1.30;;
13291;SDS011;6714;53.056;8.690;2022-10-16T13:06:23;2.53;;;1.23;;
13291;SDS011;6714;53.056;8.690;2022-10-16T13:09:12;3.13;;;1.30;;
13291;SDS011;6714;53.056;8.690;2022-10-16T13:11:58;2.17;;;1.30;;
13291;SDS011;6714;53.056;8.690;2022-10-16T13:17:52;4.73;;;1.20;;
13291;SDS011;6714;53.056;8.690;2022-10-16T13:20:39;4.10;;;1.60;;
13291;SDS011;6714;53.056;8.690;2022-10-16T13:23:24;2.93;;;1.43;;
13291;SDS011;6714;53.056;8.690;2022-10-16T13:26:11;3.23;;;1.33;;
13291;SDS011;6714;53.056;8.690;2022-10-16T13:28:58;2.40;;;1.17;;
13291;SDS011;6714;53.056;8.690;2022-10-16T13:31:41;2.57;;;1.30;;
13291;SDS011;6714;53.056;8.690;2022-10-16T13:34:26;5.53;;;1.30;;
13291;SDS011;6714;53.056;8.690;2022-10-16T13:37:15;5.13;;;1.50;;
13291;SDS011;6714;53.056;8.690;2022-10-16T13:40:09;4.27;;;1.23;;
13291;SDS011;6714;53.056;8.690;2022-10-16T13:42:59;3.27;;;1.20;;
13291;SDS011;6714;53.056;8.690;2022-10-16T13:45:52;1.87;;;1.20;;
13291;SDS011;6714;53.056;8.690;2022-10-16T13:48:34;3.50;;;1.50;;
13291;SDS011;6714;53.056;8.690;2022-10-16T13:51:18;1.70;;;1.10;;
13291;SDS011;6714;53.056;8.690;2022-10-16T13:54:00;2.20;;;1.17;;
13291;SDS011;6714;53.056;8.690;2022-10-16T13:56:42;5.87;;;2.10;;
13291;SDS011;6714;53.056;8.690;2022-10-16T13:59:25;4.20;;;1.57;;
13291;SDS011;6714;53.056;8.690;2022-10-16T14:02:22;2.20;;;1.30;;
13291;SDS011;6714;53.056;8.690;2022-10-16T14:05:08;1.90;;;0.90;;
13291;SDS011;6714;53.056;8.690;2022-10-16T14:07:52;1.90;;;1.17;;
13291;SDS011;6714;53.056;8.690;2022-10-16T14:10:36;2.80;;;1.30;;
13291;SDS011;6714;53.056;8.690;2022-10-16T14:13:18;3.50;;;1.43;;
13291;SDS011;6714;53.056;8.690;2022-10-16T14:16:02;1.73;;;0.80;;
13291;SDS011;6714;53.056;8.690;2022-10-16T14:18:51;1.53;;;1.20;;
13291;SDS011;6714;53.056;8.690;2022-10-16T14:21:36;2.63;;;1.37;;
13291;SDS011;6714;53.056;8.690;2022-10-16T14:24:24;3.40;;;1.40;;
13291;SDS011;6714;53.056;8.690;2022-10-16T14:27:20;2.13;;;1.20;;
13291;SDS011;6714;53.056;8.690;2022-10-16T14:30:11;3.03;;;1.53;;
13291;SDS011;6714;53.056;8.690;2022-10-16T14:32:55;3.47;;;1.10;;
13291;SDS011;6714;53.056;8.690;2022-10-16T14:35:37;3.17;;;1.30;;
13291;SDS011;6714;53.056;8.690;2022-10-16T14:38:20;1.80;;;1.20;;
13291;SDS011;6714;53.056;8.690;2022-10-16T14:41:05;1.87;;;1.20;;
13291;SDS011;6714;53.056;8.690;2022-10-16T14:43:49;2.90;;;1.60;;
13291;SDS011;6714;53.056;8.690;2022-10-16T14:46:33;2.20;;;1.50;;
13291;SDS011;6714;53.056;8.690;2022-10-16T14:49:17;3.97;;;1.17;;
13291;SDS011;6714;53.056;8.690;2022-10-16T14:52:00;4.03;;;1.20;;
13291;SDS011;6714;53.056;8.690;2022-10-16T14:54:43;3.77;;;1.40;;
13291;SDS011;6714;53.056;8.690;2022-10-16T14:57:27;3.07;;;1.43;;
13291;SDS011;6714;53.056;8.690;2022-10-16T15:00:11;2.03;;;1.30;;
13291;SDS011;6714;53.056;8.690;2022-10-16T15:02:55;2.37;;;1.20;;
13291;SDS011;6714;53.056;8.690;2022-10-16T15:05:37;3.07;;;1.20;;
13291;SDS011;6714;53.056;8.690;2022-10-16T15:08:19;2.67;;;1.33;;
13291;SDS011;6714;53.056;8.690;2022-10-16T15:11:01;3.17;;;1.23;;
13291;SDS011;6714;53.056;8.690;2022-10-16T15:13:45;3.57;;;1.67;;
13291;SDS011;6714;53.056;8.690;2022-10-16T15:16:27;2.23;;;1.20;;
13291;SDS011;6714;53.056;8.690;2022-10-16T15:19:09;3.20;;;1.10;;
13291;SDS011;6714;53.056;8.690;2022-10-16T15:21:52;4.60;;;1.60;;
13291;SDS011;6714;53.056;8.690;2022-10-16T15:24:34;3.10;;;1.40;;
13291;SDS011;6714;53.056;8.690;2022-10-16T15:27:16;2.17;;;1.20;;
13291;SDS011;6714;53.056;8.690;2022-10-16T15:29:59;4.30;;;1.50;;
13291;SDS011;6714;53.056;8.690;2022-10-16T15:32:42;2.90;;;1.30;;
13291;SDS011;6714;53.056;8.690;2022-10-16T15:35:24;1.70;;;1.30;;
13291;SDS011;6714;53.056;8.690;2022-10-16T15:38:06;2.53;;;1.30;;
13291;SDS011;6714;53.056;8.690;2022-10-16T15:40:48;4.10;;;1.50;;
13291;SDS011;6714;53.056;8.690;2022-10-16T15:43:31;4.43;;;1.90;;
13291;SDS011;6714;53.056;8.690;2022-10-16T15:46:15;7.17;;;1.90;;
13291;SDS011;6714;53.056;8.690;2022-10-16T15:48:59;3.97;;;1.60;;
13291;SDS011;6714;53.056;8.690;2022-10-16T15:51:41;3.37;;;1.60;;
13291;SDS011;6714;53.056;8.690;2022-10-16T15:54:24;3.57;;;1.60;;
13291;SDS011;6714;53.056;8.690;2022-10-16T15:57:06;3.33;;;1.43;;
13291;SDS011;6714;53.056;8.690;2022-10-16T15:59:48;2.50;;;1.47;;
13291;SDS011;6714;53.056;8.690;2022-10-16T16:02:32;2.93;;;1.40;;
13291;SDS011;6714;53.056;8.690;2022-10-16T16:05:14;3.27;;;1.43;;
13291;SDS011;6714;53.056;8.690;2022-10-16T16:07:57;2.77;;;1.60;;
13291;SDS011;6714;53.056;8.690;2022-10-16T16:10:39;5.10;;;1.60;;
13291;SDS011;6714;53.056;8.690;2022-10-16T16:13:21;3.43;;;1.60;;
13291;SDS011;6714;53.056;8.690;2022-10-16T16:16:05;4.17;;;1.50;;
13291;SDS011;6714;53.056;8.690;2022-10-16T16:18:50;4.20;;;1.80;;
13291;SDS011;6714;53.056;8.690;2022-10-16T16:21:34;2.67;;;1.30;;
13291;SDS011;6714;53.056;8.690;2022-10-16T16:24:16;3.23;;;1.50;;
13291;SDS011;6714;53.056;8.690;2022-10-16T16:26:58;2.07;;;1.27;;
13291;SDS011;6714;53.056;8.690;2022-10-16T16:29:40;2.03;;;1.20;;
13291;SDS011;6714;53.056;8.690;2022-10-16T16:32:23;3.93;;;1.50;;
13291;SDS011;6714;53.056;8.690;2022-10-16T16:35:06;2.77;;;1.50;;
13291;SDS011;6714;53.056;8.690;2022-10-16T16:37:48;2.83;;;1.33;;
13291;SDS011;6714;53.056;8.690;2022-10-16T16:40:31;2.50;;;1.50;;
13291;SDS011;6714;53.056;8.690;2022-10-16T16:43:13;1.97;;;1.40;;
13291;SDS011;6714;53.056;8.690;2022-10-16T16:45:55;2.23;;;1.50;;
13291;SDS011;6714;53.056;8.690;2022-10-16T16:48:37;4.70;;;1.90;;
13291;SDS011;6714;53.056;8.690;2022-10-16T16:51:21;2.53;;;1.50;;
13291;SDS011;6714;53.056;8.690;2022-10-16T16:54:03;4.33;;;1.90;;
13291;SDS011;6714;53.056;8.690;2022-10-16T16:56:46;3.87;;;1.77;;